Rms Queen Mary 2 — ZCEF6 — position and weather

sailwx.info

Track history (hours):
 
Tides and Currents Weather Stations Pressure Air Temp Water Temp Dewpoint Dewpoint Depression Visibility Wind Speed Wind Dir Waves Ship Positions

Rms Queen Mary 2

Last reported at 2018-Jan-18 23:15 UTC. Time now 2018-Jan-20 07:28 UTC.
Position N 07°14' W 014°44'.

Length 345 m; draft 10.3 m.

Type: Passenger vessel. MMSI: 310627000.

Date/timePositionNaut miles runAvg speedWind from/ knotsBaromVisibWave heightAir tempDewpointWater temp
2018-Jan-18 23:15N 07°14' W 014°44'620.5
2018-Jan-18 22:58N 07°19' W 014°47'1120.6
2018-Jan-18 22:27N 07°27' W 014°54'920.5
2018-Jan-18 22:00N 07°34' W 015°00'1520.3
2018-Jan-18 21:17N 07°44' W 015°11'620.4
2018-Jan-18 20:59N 07°49' W 015°15'1020.3
2018-Jan-18 20:30N 07°56' W 015°22'3820.0
2018-Jan-18 18:37N 08°23' W 015°48'320.0
2018-Jan-18 18:29N 08°25' W 015°49'1020.0
2018-Jan-18 18:00N 08°32' W 015°56'1220.1
2018-Jan-18 17:25N 08°41' W 016°04'820.0
2018-Jan-18 17:00N 08°47' W 016°10'2419.9
2018-Jan-18 15:49N 09°04' W 016°27'620.1
2018-Jan-18 15:31N 09°09' W 016°31'1020.1
2018-Jan-18 15:00N 09°16' W 016°38'1520.0
2018-Jan-18 14:15N 09°28' W 016°48'520.1
2018-Jan-18 14:00N 09°31' W 016°51'1020.2
2018-Jan-18 13:30N 09°39' W 016°58'  
2018-Jan-11 21:36N 49°04' W 005°26'219.0
2018-Jan-11 21:29N 49°05' W 005°23'1218.8
2018-Jan-11 20:51N 49°10' W 005°07'7619.3
2018-Jan-11 16:56N 49°47' W 003°25'1019.0
2018-Jan-11 16:24N 49°51' W 003°11'718.7
2018-Jan-11 16:00N 49°55' W 003°02'918.5
2018-Jan-11 15:30N 49°59' W 002°48'918.4
2018-Jan-11 15:00N 50°02' W 002°35'1718.4
2018-Jan-11 14:06N 50°09' W 002°12'218.8
2018-Jan-11 13:58N 50°11' W 002°08'2222.5
2018-Jan-11 13:00N 50°18' W 001°36'1815.4 340 / 211019.0 5.4 5.0 2.5 6.9
2018-Jan-11 11:48N 50°28' W 001°12'620.0
2018-Jan-11 11:29N 50°31' W 001°03'817.8
2018-Jan-11 11:00N 50°39' W 000°57'510.3
2018-Jan-11 10:30N 50°43' W 001°01'816.2
2018-Jan-11 10:00N 50°46' W 001°13'5 9.1
2018-Jan-11 09:30N 50°49' W 001°18'5 9.2
2018-Jan-11 09:00N 50°52' W 001°23'1 2.3
2018-Jan-11 08:30N 50°53' W 001°24'0 0.0
2018-Jan-11 07:19N 50°53' W 001°24'0 0.0
2018-Jan-11 05:43N 50°53' W 001°24'0 0.0
2018-Jan-11 03:49N 50°53' W 001°24'0 0.0
2018-Jan-11 03:25N 50°53' W 001°24'0 0.0
2018-Jan-11 02:49N 50°53' W 001°24'0 0.0
2018-Jan-11 02:25N 50°53' W 001°24'0 0.0
2018-Jan-11 01:43N 50°53' W 001°24'0 0.0
2018-Jan-11 01:25N 50°53' W 001°24'0 0.0
2018-Jan-11 00:58N 50°53' W 001°24'0 0.0
2018-Jan-11 00:07N 50°53' W 001°24'0 0.0
2018-Jan-10 23:49N 50°53' W 001°24'0 0.0
2018-Jan-10 23:22N 50°53' W 001°24'0 0.0
2018-Jan-10 22:58N 50°53' W 001°24'0 0.0
2018-Jan-10 22:25N 50°53' W 001°24'0 0.0
2018-Jan-10 21:58N 50°53' W 001°24'0 0.0
2018-Jan-10 21:28N 50°53' W 001°24'0 0.0
2018-Jan-10 20:58N 50°53' W 001°24'0 0.0
2018-Jan-10 20:19N 50°53' W 001°24'0 0.0
2018-Jan-10 19:58N 50°53' W 001°24'0 0.0
2018-Jan-10 19:19N 50°53' W 001°24'0 0.0
2018-Jan-10 18:58N 50°53' W 001°24'0 0.0
2018-Jan-10 18:25N 50°53' W 001°24'0 0.0
2018-Jan-10 17:25N 50°53' W 001°24'0 0.0
2018-Jan-10 16:55N 50°53' W 001°24'0 0.0
2018-Jan-10 13:49N 50°53' W 001°24'0 0.0
2018-Jan-10 13:25N 50°53' W 001°24'0 0.0
2018-Jan-10 11:43N 50°53' W 001°24'0 0.0
2018-Jan-10 11:13N 50°53' W 001°24'0 0.0
2018-Jan-10 07:59N 50°53' W 001°24'1 1.7
2018-Jan-10 07:27N 50°53' W 001°23'4 8.4
2018-Jan-10 07:00N 50°50' W 001°19'4 8.2
2018-Jan-10 06:30N 50°46' W 001°16'918.3
2018-Jan-10 06:01N 50°44' W 001°02'612.1
2018-Jan-10 05:30N 50°39' W 000°56'510.9
2018-Jan-10 05:00N 50°34' W 000°55'815.7
2018-Jan-10 04:30N 50°30' W 001°05'1222.0
2018-Jan-10 03:59N 50°28' W 001°23'1123.8
2018-Jan-10 03:30N 50°23' W 001°40'1325.5
2018-Jan-10 03:00N 50°19' W 001°58'1427.0
2018-Jan-10 02:30N 50°15' W 002°19'1327.6
2018-Jan-10 02:01N 50°11' W 002°39'1427.3
2018-Jan-10 01:31N 50°07' W 002°59'1427.0
2018-Jan-10 01:01N 50°01' W 003°18'1427.0
2018-Jan-10 00:30N 49°57' W 003°38'1526.7
2018-Jan-09 23:57N 49°54' W 004°01'1226.5
2018-Jan-09 23:30N 49°52' W 004°19'1526.5
2018-Jan-09 22:56N 49°48' W 004°41'1225.5
2018-Jan-09 22:27N 49°45' W 004°60'  
Track history (hours):
 
Tides and Currents Weather Stations Pressure Air Temp Water Temp Dewpoint Dewpoint Depression Visibility Wind Speed Wind Dir Waves Ship Positions

Rms Queen Mary 2

Last reported at 2018-Jan-18 23:15 UTC. Time now 2018-Jan-20 07:28 UTC.
Position N 07°14' W 014°44'.

Length 345 m; draft 10.3 m.

Type: Passenger vessel. MMSI: 310627000.

Date/timePositionNaut miles runAvg speedWind from/ knotsBaromVisibWave heightAir tempDewpointWater temp
2018-Jan-18 23:15N 07°14' W 014°44'620.5
2018-Jan-18 22:58N 07°19' W 014°47'1120.6
2018-Jan-18 22:27N 07°27' W 014°54'920.5
2018-Jan-18 22:00N 07°34' W 015°00'1520.3
2018-Jan-18 21:17N 07°44' W 015°11'620.4
2018-Jan-18 20:59N 07°49' W 015°15'1020.3
2018-Jan-18 20:30N 07°56' W 015°22'3820.0
2018-Jan-18 18:37N 08°23' W 015°48'320.0
2018-Jan-18 18:29N 08°25' W 015°49'1020.0
2018-Jan-18 18:00N 08°32' W 015°56'1220.1
2018-Jan-18 17:25N 08°41' W 016°04'820.0
2018-Jan-18 17:00N 08°47' W 016°10'2419.9
2018-Jan-18 15:49N 09°04' W 016°27'620.1
2018-Jan-18 15:31N 09°09' W 016°31'1020.1
2018-Jan-18 15:00N 09°16' W 016°38'1520.0
2018-Jan-18 14:15N 09°28' W 016°48'520.1
2018-Jan-18 14:00N 09°31' W 016°51'1020.2
2018-Jan-18 13:30N 09°39' W 016°58'  
2018-Jan-11 21:36N 49°04' W 005°26'219.0
2018-Jan-11 21:29N 49°05' W 005°23'1218.8
2018-Jan-11 20:51N 49°10' W 005°07'7619.3
2018-Jan-11 16:56N 49°47' W 003°25'1019.0
2018-Jan-11 16:24N 49°51' W 003°11'718.7
2018-Jan-11 16:00N 49°55' W 003°02'918.5
2018-Jan-11 15:30N 49°59' W 002°48'918.4
2018-Jan-11 15:00N 50°02' W 002°35'1718.4
2018-Jan-11 14:06N 50°09' W 002°12'218.8
2018-Jan-11 13:58N 50°11' W 002°08'2222.5
2018-Jan-11 13:00N 50°18' W 001°36'1815.4 340 / 211019.0 5.4 5.0 2.5 6.9
2018-Jan-11 11:48N 50°28' W 001°12'620.0
2018-Jan-11 11:29N 50°31' W 001°03'817.8
2018-Jan-11 11:00N 50°39' W 000°57'510.3
2018-Jan-11 10:30N 50°43' W 001°01'816.2
2018-Jan-11 10:00N 50°46' W 001°13'5 9.1
2018-Jan-11 09:30N 50°49' W 001°18'5 9.2
2018-Jan-11 09:00N 50°52' W 001°23'1 2.3
2018-Jan-11 08:30N 50°53' W 001°24'0 0.0
2018-Jan-11 07:19N 50°53' W 001°24'0 0.0
2018-Jan-11 05:43N 50°53' W 001°24'0 0.0
2018-Jan-11 03:49N 50°53' W 001°24'0 0.0
2018-Jan-11 03:25N 50°53' W 001°24'0 0.0
2018-Jan-11 02:49N 50°53' W 001°24'0 0.0
2018-Jan-11 02:25N 50°53' W 001°24'0 0.0
2018-Jan-11 01:43N 50°53' W 001°24'0 0.0
2018-Jan-11 01:25N 50°53' W 001°24'0 0.0
2018-Jan-11 00:58N 50°53' W 001°24'0 0.0
2018-Jan-11 00:07N 50°53' W 001°24'0 0.0
2018-Jan-10 23:49N 50°53' W 001°24'0 0.0
2018-Jan-10 23:22N 50°53' W 001°24'0 0.0
2018-Jan-10 22:58N 50°53' W 001°24'0 0.0
2018-Jan-10 22:25N 50°53' W 001°24'0 0.0
2018-Jan-10 21:58N 50°53' W 001°24'0 0.0
2018-Jan-10 21:28N 50°53' W 001°24'0 0.0
2018-Jan-10 20:58N 50°53' W 001°24'0 0.0
2018-Jan-10 20:19N 50°53' W 001°24'0 0.0
2018-Jan-10 19:58N 50°53' W 001°24'0 0.0
2018-Jan-10 19:19N 50°53' W 001°24'0 0.0
2018-Jan-10 18:58N 50°53' W 001°24'0 0.0
2018-Jan-10 18:25N 50°53' W 001°24'0 0.0
2018-Jan-10 17:25N 50°53' W 001°24'0 0.0
2018-Jan-10 16:55N 50°53' W 001°24'0 0.0
2018-Jan-10 13:49N 50°53' W 001°24'0 0.0
2018-Jan-10 13:25N 50°53' W 001°24'0 0.0
2018-Jan-10 11:43N 50°53' W 001°24'0 0.0
2018-Jan-10 11:13N 50°53' W 001°24'0 0.0
2018-Jan-10 07:59N 50°53' W 001°24'1 1.7
2018-Jan-10 07:27N 50°53' W 001°23'4 8.4
2018-Jan-10 07:00N 50°50' W 001°19'4 8.2
2018-Jan-10 06:30N 50°46' W 001°16'918.3
2018-Jan-10 06:01N 50°44' W 001°02'612.1
2018-Jan-10 05:30N 50°39' W 000°56'510.9
2018-Jan-10 05:00N 50°34' W 000°55'815.7
2018-Jan-10 04:30N 50°30' W 001°05'1222.0
2018-Jan-10 03:59N 50°28' W 001°23'1123.8
2018-Jan-10 03:30N 50°23' W 001°40'1325.5
2018-Jan-10 03:00N 50°19' W 001°58'1427.0
2018-Jan-10 02:30N 50°15' W 002°19'1327.6
2018-Jan-10 02:01N 50°11' W 002°39'1427.3
2018-Jan-10 01:31N 50°07' W 002°59'1427.0
2018-Jan-10 01:01N 50°01' W 003°18'1427.0
2018-Jan-10 00:30N 49°57' W 003°38'1526.7
2018-Jan-09 23:57N 49°54' W 004°01'1226.5
2018-Jan-09 23:30N 49°52' W 004°19'1526.5
2018-Jan-09 22:56N 49°48' W 004°41'1225.5
2018-Jan-09 22:27N 49°45' W 004°60'  

Dump ship's entire track history